Time;durP1;ratioP1;P1;durP2;ratioP2;P2;SDS_P1;SDS_P2;PMS_P1;PMS_P2;Temp;Humidity;BMP_temperature;BMP_pressure;BME280_temperature;BME280_humidity;BME280_pressure;Samples;Min_cycle;Max_cycle;Signal;HPM_P1;HPM_P2
2023/11/06 00:02:37;;;;;;;4.73;1.80;;;11.60;82.60;;;;;;780970;182;26645;-88
2023/11/06 00:05:30;;;;;;;;;;;;;;;;;;;;;
2023/11/06 00:07:58;;;;;;;8.30;2.40;;;11.60;83.00;;;;;;770034;184;26486;-89
2023/11/06 00:10:31;;;;;;;7.67;2.60;;;11.50;82.50;;;;;;788548;179;26515;-89
2023/11/06 00:13:01;;;;;;;6.47;2.63;;;11.60;82.70;;;;;;788924;181;26483;-89
2023/11/06 00:15:38;;;;;;;9.20;4.40;;;11.60;81.50;;;;;;769142;186;26734;-89
2023/11/06 00:18:13;;;;;;;23.67;10.97;;;11.60;82.00;;;;;;789797;181;26492;-89
2023/11/06 00:20:44;;;;;;;37.90;20.07;;;11.50;81.90;;;;;;770428;184;27076;-88
2023/11/06 00:23:17;;;;;;;19.50;10.70;;;11.50;82.10;;;;;;774510;184;26472;-89
2023/11/06 00:25:47;;;;;;;12.00;4.47;;;11.50;82.80;;;;;;783558;183;26470;-92
2023/11/06 00:28:20;;;;;;;6.87;3.23;;;11.50;82.00;;;;;;773700;185;26486;-89
2023/11/06 00:30:51;;;;;;;12.73;6.00;;;11.40;82.50;;;;;;790700;182;26472;-88
2023/11/06 00:33:22;;;;;;;7.40;4.37;;;11.40;82.40;;;;;;781335;184;27146;-89
2023/11/06 00:36:02;;;;;;;14.10;7.63;;;11.30;82.70;;;;;;783738;183;26485;-89
2023/11/06 00:38:36;;;;;;;7.37;2.77;;;11.30;82.50;;;;;;772385;185;26530;-87
2023/11/06 00:41:14;;;;;;;7.93;2.50;;;11.30;83.20;;;;;;776997;183;26497;-88
2023/11/06 00:43:46;;;;;;;8.00;3.03;;;11.20;82.80;;;;;;774787;184;26479;-88
2023/11/06 00:46:21;;;;;;;10.47;3.90;;;11.30;83.50;;;;;;775577;184;26471;-89
2023/11/06 00:49:02;;;;;;;22.93;12.23;;;11.30;82.70;;;;;;774592;184;26743;-89
2023/11/06 00:51:38;;;;;;;16.60;6.27;;;11.20;81.40;;;;;;791058;181;26457;-88
2023/11/06 00:54:11;;;;;;;19.37;10.20;;;11.30;81.30;;;;;;784295;181;27147;-88
2023/11/06 00:56:43;;;;;;;16.93;7.77;;;11.20;82.20;;;;;;779587;181;27030;-88
2023/11/06 00:59:16;;;;;;;8.53;3.33;;;11.10;81.50;;;;;;785957;181;26470;-87
2023/11/06 01:01:44;;;;;;;6.03;2.10;;;11.00;83.10;;;;;;786741;181;26571;-88
2023/11/06 01:04:19;;;;;;;6.33;2.00;;;10.90;83.40;;;;;;785585;181;27091;-88
2023/11/06 01:06:54;;;;;;;7.07;2.67;;;10.90;83.60;;;;;;787727;179;26489;-88
2023/11/06 01:09:30;;;;;;;14.93;5.67;;;10.80;82.90;;;;;;787951;180;27089;-88
2023/11/06 01:11:55;;;;;;;13.50;5.57;;;10.90;83.50;;;;;;787723;181;26457;-86
2023/11/06 01:14:29;;;;;;;21.60;11.60;;;10.90;82.30;;;;;;788442;180;26449;-89
2023/11/06 01:16:55;;;;;;;16.60;9.77;;;10.90;83.80;;;;;;789742;181;26480;-87
2023/11/06 01:19:37;;;;;;;6.97;2.67;;;11.00;83.50;;;;;;790844;180;26494;-88
2023/11/06 01:22:07;;;;;;;6.57;2.57;;;11.00;82.50;;;;;;787263;181;26473;-88
2023/11/06 01:24:40;;;;;;;7.30;3.47;;;11.10;82.70;;;;;;787426;181;26989;-88
2023/11/06 01:27:09;;;;;;;24.80;11.63;;;11.10;82.40;;;;;;788699;181;26464;-88
2023/11/06 01:29:48;;;;;;;60.27;30.60;;;11.20;82.00;;;;;;786577;181;26454;-88
2023/11/06 01:32:24;;;;;;;56.97;30.27;;;11.20;82.30;;;;;;792639;181;26997;-88
2023/11/06 01:34:58;;;;;;;19.17;9.70;;;11.20;82.70;;;;;;786884;180;26441;-89
2023/11/06 01:37:29;;;;;;;12.10;5.93;;;11.20;82.40;;;;;;780741;181;26561;-88
2023/11/06 01:40:01;;;;;;;5.67;2.43;;;11.30;81.70;;;;;;775048;175;26628;-87
2023/11/06 01:42:31;;;;;;;5.27;2.30;;;11.30;81.00;;;;;;770201;185;26506;-90
2023/11/06 01:45:00;;;;;;;3.93;1.90;;;11.30;81.80;;;;;;765712;185;26482;-88
2023/11/06 01:47:36;;;;;;;6.87;2.40;;;11.30;81.60;;;;;;768170;183;26534;-87
2023/11/06 01:50:24;;;;;;;6.07;2.03;;;11.30;81.70;;;;;;750827;191;26525;-87
2023/11/06 01:52:57;;;;;;;7.83;2.33;;;11.20;82.00;;;;;;743836;190;26475;-86
2023/11/06 01:55:33;;;;;;;5.77;2.17;;;11.20;82.50;;;;;;761396;184;26470;-86
2023/11/06 02:09:03;;;;;;;5.33;2.00;;;11.30;82.40;;;;;;743272;177;26487;-88
2023/11/06 02:11:29;;;;;;;6.17;2.10;;;11.30;82.10;;;;;;791478;179;26486;-87
2023/11/06 02:13:55;;;;;;;3.07;1.70;;;11.30;81.40;;;;;;783903;181;26543;-88
2023/11/06 02:16:22;;;;;;;17.40;7.80;;;11.40;81.50;;;;;;783141;179;26460;-87
2023/11/06 02:18:49;;;;;;;19.43;9.33;;;11.40;82.30;;;;;;790789;180;27023;-87
2023/11/06 02:21:21;;;;;;;14.70;4.70;;;11.40;81.70;;;;;;783996;179;26472;-86
2023/11/06 02:23:59;;;;;;;8.20;3.70;;;11.40;81.70;;;;;;779900;177;26509;-86
2023/11/06 02:26:28;;;;;;;5.87;2.30;;;11.40;81.70;;;;;;769588;182;26471;-87
2023/11/06 02:28:55;;;;;;;15.60;6.10;;;11.40;81.40;;;;;;768358;183;26474;-88
2023/11/06 02:31:25;;;;;;;8.93;3.13;;;11.40;82.70;;;;;;773847;184;27012;-87
2023/11/06 02:34:00;;;;;;;54.20;25.00;;;11.40;82.80;;;;;;764029;184;26533;-86
2023/11/06 02:36:30;;;;;;;11.17;5.60;;;11.30;83.60;;;;;;734572;194;27098;-87
2023/11/06 02:38:59;;;;;;;13.33;5.50;;;11.20;83.70;;;;;;747361;190;26463;-88
2023/11/06 02:41:30;;;;;;;12.43;5.37;;;11.20;84.30;;;;;;741260;191;26545;-86
2023/11/06 02:44:03;;;;;;;6.80;3.30;;;11.30;83.70;;;;;;738457;191;27082;-86
2023/11/06 02:46:35;;;;;;;14.57;6.83;;;11.20;83.50;;;;;;738552;190;26718;-88
2023/11/06 02:49:06;;;;;;;13.53;7.80;;;11.30;83.50;;;;;;748453;190;26581;-89
2023/11/06 02:51:42;;;;;;;;;;;;;;;;;;;;;
2023/11/06 02:54:12;;;;;;;4.37;2.00;;;11.30;83.60;;;;;;740899;190;26535;-88
2023/11/06 02:56:55;;;;;;;3.87;1.70;;;11.30;83.50;;;;;;738315;194;26557;-88
2023/11/06 02:59:34;;;;;;;8.40;4.13;;;11.20;84.00;;;;;;739495;190;27017;-89
2023/11/06 03:02:05;;;;;;;4.63;2.30;;;11.20;85.30;;;;;;750951;188;26437;-87
2023/11/06 03:04:36;;;;;;;8.30;2.43;;;11.00;86.00;;;;;;750734;190;26436;-86
2023/11/06 03:07:08;;;;;;;3.97;1.80;;;10.90;87.30;;;;;;747315;190;27043;-89
2023/11/06 03:09:38;;;;;;;9.03;4.30;;;10.90;87.10;;;;;;750540;188;26436;-90
2023/11/06 03:12:13;;;;;;;190.60;76.50;;;10.90;86.50;;;;;;741962;188;26561;-88
2023/11/06 03:14:40;;;;;;;20.30;9.50;;;10.90;87.60;;;;;;750851;190;26538;-86
2023/11/06 03:17:25;;;;;;;13.17;6.27;;;10.80;86.40;;;;;;749440;190;26795;-87
2023/11/06 03:19:54;;;;;;;6.50;3.60;;;10.90;86.70;;;;;;758934;185;26556;-89
2023/11/06 03:22:27;;;;;;;10.20;3.60;;;10.90;85.60;;;;;;763509;184;26510;-88
2023/11/06 03:24:56;;;;;;;6.10;2.60;;;10.90;86.20;;;;;;764528;187;27127;-86
2023/11/06 03:27:30;;;;;;;5.30;2.10;;;10.90;86.00;;;;;;764603;187;26498;-87
2023/11/06 03:29:56;;;;;;;5.63;2.40;;;10.90;85.50;;;;;;761064;187;26540;-88
2023/11/06 03:32:28;;;;;;;3.07;1.63;;;10.90;85.30;;;;;;763573;184;26526;-86
2023/11/06 03:34:57;;;;;;;7.37;1.90;;;10.90;85.40;;;;;;760203;186;26506;-86
2023/11/06 03:37:31;;;;;;;5.53;2.00;;;10.90;85.10;;;;;;768656;185;27127;-87
2023/11/06 03:40:06;;;;;;;6.37;2.00;;;10.80;85.40;;;;;;766852;185;27056;-85
2023/11/06 03:42:41;;;;;;;15.40;2.17;;;10.80;85.60;;;;;;746839;189;26513;-89
2023/11/06 03:45:10;;;;;;;5.10;1.60;;;10.80;85.30;;;;;;759477;186;26535;-87
2023/11/06 03:47:48;;;;;;;4.80;1.63;;;10.70;85.50;;;;;;759104;185;28176;-87
2023/11/06 03:50:24;;;;;;;5.10;1.83;;;10.80;85.30;;;;;;758409;185;27080;-90
2023/11/06 03:52:58;;;;;;;6.97;1.93;;;10.80;85.40;;;;;;763519;185;26524;-86
2023/11/06 03:55:27;;;;;;;3.97;1.73;;;10.80;84.70;;;;;;764555;187;26503;-87
2023/11/06 03:58:08;;;;;;;5.87;1.70;;;10.80;85.40;;;;;;762703;187;26509;-86
2023/11/06 04:00:41;;;;;;;4.83;1.73;;;10.70;84.90;;;;;;763929;187;26496;-88
2023/11/06 04:03:16;;;;;;;4.63;1.63;;;10.70;85.10;;;;;;759780;187;26515;-88
2023/11/06 04:05:54;;;;;;;4.00;1.77;;;10.70;85.10;;;;;;755273;187;26516;-88
2023/11/06 04:08:25;;;;;;;4.57;1.90;;;10.70;84.80;;;;;;759952;184;27110;-88
2023/11/06 04:11:03;;;;;;;9.20;3.10;;;10.70;84.80;;;;;;761358;187;27117;-88
2023/11/06 04:13:35;;;;;;;5.43;1.80;;;10.70;85.10;;;;;;758402;184;27049;-87
2023/11/06 04:16:07;;;;;;;5.47;1.67;;;10.70;85.00;;;;;;751191;187;26559;-87
2023/11/06 04:18:42;;;;;;;3.70;1.77;;;10.70;85.00;;;;;;756445;187;27077;-87
2023/11/06 04:21:21;;;;;;;;;;;;;;;;;;;;;
2023/11/06 04:23:50;;;;;;;5.57;1.90;;;10.80;83.90;;;;;;766794;184;26511;-88
2023/11/06 04:26:24;;;;;;;8.53;2.00;;;10.80;84.30;;;;;;762251;185;26511;-87
2023/11/06 04:28:52;;;;;;;5.40;2.03;;;10.80;83.80;;;;;;762259;187;26513;-87
2023/11/06 04:31:26;;;;;;;5.77;1.93;;;10.80;83.80;;;;;;760256;187;26494;-87
2023/11/06 04:34:11;;;;;;;10.60;2.10;;;10.90;83.50;;;;;;751046;188;26509;-87
2023/11/06 04:36:40;;;;;;;6.20;2.00;;;10.90;83.50;;;;;;752546;187;26514;-87
2023/11/06 04:39:10;;;;;;;7.27;2.07;;;10.90;84.00;;;;;;762191;186;26515;-88
2023/11/06 04:41:53;;;;;;;7.77;2.10;;;10.90;83.00;;;;;;758521;187;26499;-87
2023/11/06 04:44:30;;;;;;;7.23;2.33;;;11.00;83.10;;;;;;786248;178;26549;-86
2023/11/06 04:47:07;;;;;;;6.60;2.20;;;11.00;82.80;;;;;;788799;182;27075;-87
2023/11/06 04:49:43;;;;;;;11.90;2.27;;;11.00;82.90;;;;;;780604;180;26469;-87
2023/11/06 04:52:21;;;;;;;9.23;2.83;;;11.00;83.90;;;;;;781966;182;26456;-86
2023/11/06 04:54:57;;;;;;;9.67;2.20;;;11.00;84.30;;;;;;780677;180;26514;-87
2023/11/06 04:57:24;;;;;;;10.67;2.47;;;10.90;83.80;;;;;;783475;178;26590;-89
2023/11/06 04:59:51;;;;;;;11.10;3.27;;;10.90;83.40;;;;;;800550;177;26435;-90
2023/11/06 05:02:17;;;;;;;10.10;2.20;;;11.00;83.20;;;;;;802334;174;26411;-89
2023/11/06 05:04:44;;;;;;;8.13;2.80;;;11.00;83.60;;;;;;809180;178;27007;-89
2023/11/06 05:07:10;;;;;;;9.67;2.40;;;11.00;83.00;;;;;;808277;177;26445;-88
2023/11/06 05:09:37;;;;;;;8.40;2.87;;;11.00;83.80;;;;;;798989;179;26987;-87
2023/11/06 05:12:04;;;;;;;9.17;2.97;;;11.10;83.20;;;;;;796733;179;26461;-87
2023/11/06 05:14:30;;;;;;;11.90;2.40;;;11.10;83.20;;;;;;800722;179;26983;-89
2023/11/06 05:16:57;;;;;;;12.57;2.80;;;11.10;82.90;;;;;;796177;179;26453;-87
2023/11/06 05:19:24;;;;;;;14.33;2.83;;;11.10;83.10;;;;;;801285;179;26982;-88
2023/11/06 05:21:50;;;;;;;10.57;2.97;;;11.10;83.20;;;;;;803221;178;26449;-88
2023/11/06 05:24:17;;;;;;;7.73;3.00;;;11.10;84.00;;;;;;800657;178;27024;-88
2023/11/06 05:26:45;;;;;;;10.50;2.50;;;11.10;82.50;;;;;;793622;177;26469;-88
2023/11/06 05:29:10;;;;;;;11.47;2.83;;;11.10;83.40;;;;;;793602;180;26614;-88
2023/11/06 05:31:37;;;;;;;8.23;2.50;;;11.10;82.20;;;;;;790564;180;26460;-87
2023/11/06 05:34:03;;;;;;;13.73;2.93;;;11.10;82.20;;;;;;793190;180;26460;-87
2023/11/06 05:36:30;;;;;;;11.20;3.00;;;11.10;83.00;;;;;;799211;177;26456;-88
2023/11/06 05:38:56;;;;;;;8.67;2.63;;;11.10;83.40;;;;;;796025;177;26449;-88
2023/11/06 05:41:25;;;;;;;8.97;2.87;;;11.10;82.60;;;;;;802368;179;26427;-87
2023/11/06 05:43:50;;;;;;;16.53;3.37;;;11.10;83.90;;;;;;800638;178;26432;-87
2023/11/06 05:46:16;;;;;;;11.77;3.17;;;11.00;83.50;;;;;;794536;180;26429;-88
2023/11/06 05:48:43;;;;;;;10.37;3.43;;;11.00;83.60;;;;;;799657;179;26452;-87
2023/11/06 05:51:09;;;;;;;14.27;2.83;;;11.00;83.20;;;;;;794092;180;26437;-88
2023/11/06 05:53:36;;;;;;;10.53;2.73;;;11.00;84.10;;;;;;791727;181;26455;-87
2023/11/06 05:56:03;;;;;;;10.73;2.67;;;11.00;83.00;;;;;;789349;180;26444;-87
2023/11/06 05:58:29;;;;;;;13.60;3.03;;;11.00;82.70;;;;;;793399;179;26468;-88
2023/11/06 06:00:56;;;;;;;15.43;3.27;;;11.00;82.80;;;;;;800834;177;26436;-87
2023/11/06 06:03:22;;;;;;;13.37;3.20;;;11.00;83.10;;;;;;797614;177;26461;-88
2023/11/06 06:05:49;;;;;;;12.07;3.10;;;10.90;83.10;;;;;;807857;177;26436;-87
2023/11/06 06:08:16;;;;;;;15.00;3.30;;;10.80;83.60;;;;;;805355;177;26794;-88
2023/11/06 06:10:42;;;;;;;12.97;3.30;;;10.70;83.70;;;;;;804628;175;26444;-87
2023/11/06 06:13:09;;;;;;;11.90;3.07;;;10.60;83.90;;;;;;796314;177;26432;-88
2023/11/06 06:15:35;;;;;;;19.63;3.33;;;10.50;85.40;;;;;;792340;179;26437;-87
2023/11/06 06:18:02;;;;;;;13.83;2.97;;;10.60;84.80;;;;;;795662;176;26484;-87
2023/11/06 06:20:29;;;;;;;12.20;3.37;;;10.50;85.20;;;;;;795852;179;26488;-87
2023/11/06 06:22:55;;;;;;;13.53;3.53;;;10.40;85.60;;;;;;796740;179;26449;-88
2023/11/06 06:25:22;;;;;;;14.63;3.30;;;10.40;85.50;;;;;;794664;177;26433;-87
2023/11/06 06:27:49;;;;;;;13.40;3.70;;;10.30;86.70;;;;;;801144;179;26453;-87
2023/11/06 06:30:15;;;;;;;12.60;3.87;;;10.30;86.10;;;;;;801451;176;27035;-87
2023/11/06 06:32:42;;;;;;;16.70;3.97;;;10.30;85.70;;;;;;794921;179;26448;-87
2023/11/06 06:35:09;;;;;;;21.10;4.13;;;10.40;85.60;;;;;;793307;179;26975;-87
2023/11/06 06:37:35;;;;;;;15.33;4.33;;;10.40;85.90;;;;;;790182;180;26447;-88
2023/11/06 06:40:17;;;;;;;15.40;4.33;;;10.30;86.00;;;;;;797695;176;26456;-86
2023/11/06 06:43:03;;;;;;;16.20;3.80;;;10.30;86.40;;;;;;798748;178;26430;-85
2023/11/06 06:45:30;;;;;;;12.73;4.17;;;10.30;86.70;;;;;;793034;180;26435;-86
2023/11/06 06:47:57;;;;;;;16.00;5.30;;;10.20;86.40;;;;;;791992;180;26990;-85
2023/11/06 06:50:23;;;;;;;13.47;4.37;;;10.10;85.70;;;;;;795008;179;26426;-86
2023/11/06 06:52:50;;;;;;;13.80;3.33;;;10.20;86.00;;;;;;796139;179;26433;-86
2023/11/06 06:55:21;;;;;;;13.00;4.50;;;10.10;86.10;;;;;;802399;177;27062;-90
2023/11/06 07:09:09;;;;;;;14.43;3.60;;;10.10;85.90;;;;;;785387;177;26509;-88
2023/11/06 07:11:48;;;;;;;12.90;3.40;;;10.10;86.30;;;;;;785007;181;27102;-87
2023/11/06 07:14:24;;;;;;;12.57;3.33;;;10.00;86.80;;;;;;791175;178;26467;-84
2023/11/06 07:17:05;;;;;;;14.67;3.90;;;10.10;86.00;;;;;;792152;178;26556;-85
2023/11/06 07:19:38;;;;;;;10.77;2.97;;;10.10;85.70;;;;;;797640;179;27062;-88
2023/11/06 07:22:12;;;;;;;9.27;3.03;;;10.10;85.40;;;;;;792801;177;26471;-89
2023/11/06 07:24:45;;;;;;;10.60;2.60;;;10.10;85.90;;;;;;788096;178;26464;-88
2023/11/06 07:27:23;;;;;;;17.07;3.30;;;10.20;85.30;;;;;;784577;181;26471;-88
2023/11/06 07:29:58;;;;;;;9.37;2.90;;;10.20;86.00;;;;;;790410;181;26473;-88
2023/11/06 07:32:40;;;;;;;10.73;3.13;;;10.30;84.60;;;;;;793717;178;26458;-87
2023/11/06 07:35:12;;;;;;;9.33;3.00;;;10.30;84.40;;;;;;795592;181;26463;-88
2023/11/06 07:37:43;;;;;;;10.47;2.80;;;10.30;84.70;;;;;;776081;180;26491;-87
2023/11/06 07:40:15;;;;;;;12.77;3.67;;;10.30;83.90;;;;;;787864;180;26460;-87
2023/11/06 07:42:44;;;;;;;9.20;2.67;;;10.40;84.10;;;;;;784280;180;26456;-87
2023/11/06 07:45:18;;;;;;;9.07;3.23;;;10.40;83.80;;;;;;796267;178;26458;-88
2023/11/06 07:47:46;;;;;;;14.77;3.00;;;10.30;82.90;;;;;;797085;178;26483;-88
2023/11/06 07:50:15;;;;;;;11.03;2.83;;;10.30;83.70;;;;;;785830;178;26456;-88
2023/11/06 07:52:41;;;;;;;11.83;3.40;;;10.40;83.60;;;;;;788645;180;26479;-90
2023/11/06 07:55:08;;;;;;;9.80;3.13;;;10.40;83.00;;;;;;788821;179;27137;-89
2023/11/06 07:57:35;;;;;;;14.63;3.80;;;10.50;82.70;;;;;;797476;180;26473;-90
2023/11/06 08:00:02;;;;;;;10.07;2.60;;;10.50;81.60;;;;;;795356;178;26463;-89
2023/11/06 08:02:28;;;;;;;8.30;2.50;;;10.50;81.80;;;;;;784795;181;26459;-90
2023/11/06 08:05:10;;;;;;;8.80;2.80;;;10.50;81.40;;;;;;790446;179;26458;-89
2023/11/06 08:10:35;;;;;;;15.93;4.07;;;10.70;80.80;;;;;;721648;175;26545;-77
2023/11/06 08:13:14;;;;;;;8.60;2.80;;;11.00;87.00;;;;;;768943;186;26511;-88
2023/11/06 08:16:02;;;;;;;13.50;3.57;;;10.90;80.30;;;;;;767383;186;26535;-89
2023/11/06 08:18:33;;;;;;;11.60;3.03;;;11.00;81.00;;;;;;762156;186;26518;-79
2023/11/06 08:23:36;;;;;;;9.50;2.40;;;11.70;79.20;;;;;;765481;186;26449;-92
2023/11/06 08:26:10;;;;;;;15.83;3.00;;;11.30;78.20;;;;;;765369;187;26501;-91
2023/11/06 08:28:52;;;;;;;11.93;2.73;;;11.10;78.80;;;;;;764138;187;26519;-89
2023/11/06 08:31:29;;;;;;;10.07;2.93;;;11.10;80.00;;;;;;757501;187;27062;-90
2023/11/06 08:37:07;;;;;;;10.17;2.50;;;11.10;79.20;;;;;;750201;189;26546;-89
2023/11/06 08:42:23;;;;;;;7.47;2.47;;;11.20;78.90;;;;;;761648;188;27003;-89
2023/11/06 08:45:17;;;;;;;10.07;2.50;;;11.20;77.70;;;;;;758633;187;28096;-90
2023/11/06 09:04:41;;;;;;;8.07;2.57;;;11.70;75.40;;;;;;794285;181;26553;-89
2023/11/06 10:24:17;;;;;;;27.43;13.27;;;14.10;65.00;;;;;;733708;173;26510;-89
2023/11/06 10:26:44;;;;;;;13.03;6.73;;;14.00;64.60;;;;;;774578;182;26491;-90
2023/11/06 10:29:11;;;;;;;12.43;4.03;;;13.90;64.20;;;;;;760498;181;27073;-89
2023/11/06 10:31:39;;;;;;;27.40;14.53;;;13.90;64.80;;;;;;752910;187;26497;-88
2023/11/06 11:04:43;;;;;;;8.67;4.03;;;13.30;67.20;;;;;;735979;174;27185;-86
2023/11/06 11:07:26;;;;;;;8.53;3.23;;;13.30;68.00;;;;;;785417;182;27005;-89
2023/11/06 11:09:53;;;;;;;13.53;2.70;;;13.30;68.60;;;;;;770488;186;26476;-86
2023/11/06 11:12:23;;;;;;;11.67;6.10;;;13.40;67.20;;;;;;774536;183;27072;-89
2023/11/06 11:14:53;;;;;;;25.93;13.37;;;13.40;68.60;;;;;;756754;184;27028;-88
2023/11/06 11:20:05;;;;;;;10.23;3.87;;;13.30;68.20;;;;;;719337;180;26507;-88
2023/11/06 11:22:32;;;;;;;7.57;2.50;;;13.30;69.20;;;;;;796248;177;26449;-88
2023/11/06 11:25:04;;;;;;;12.30;3.30;;;13.40;68.10;;;;;;795595;180;26499;-89
2023/11/06 11:27:41;;;;;;;8.57;2.70;;;13.50;67.50;;;;;;797867;178;27019;-88
2023/11/06 11:30:08;;;;;;;8.27;3.93;;;13.50;67.70;;;;;;759020;187;27089;-88
2023/11/06 11:32:51;;;;;;;19.67;10.63;;;13.70;68.40;;;;;;759669;173;26549;-88
2023/11/06 11:35:52;;;;;;;11.37;3.17;;;14.00;68.30;;;;;;752388;190;27857;-88
2023/11/06 11:38:18;;;;;;;5.60;2.23;;;14.70;64.90;;;;;;762618;187;26569;-89
2023/11/06 11:41:05;;;;;;;7.87;3.37;;;15.20;63.00;;;;;;762193;185;26548;-89
2023/11/06 11:43:42;;;;;;;7.77;2.80;;;15.20;62.40;;;;;;773389;185;26506;-89
2023/11/06 11:46:31;;;;;;;16.77;8.73;;;15.00;63.20;;;;;;774066;185;26479;-88
2023/11/06 11:48:58;;;;;;;32.73;17.00;;;15.10;62.30;;;;;;766775;185;26532;-89
2023/11/06 11:51:36;;;;;;;19.27;11.43;;;14.90;62.70;;;;;;761133;189;26456;-88
2023/11/06 11:54:02;;;;;;;6.63;3.37;;;14.90;63.30;;;;;;749846;191;26551;-89
2023/11/06 11:56:41;;;;;;;22.67;12.37;;;16.50;59.20;;;;;;749413;191;27124;-89
2023/11/06 11:59:07;;;;;;;31.33;19.67;;;16.30;57.70;;;;;;775730;184;26466;-90
2023/11/06 12:01:34;;;;;;;13.63;8.33;;;15.70;58.80;;;;;;752852;190;26484;-91
2023/11/06 12:04:01;;;;;;;4.87;2.60;;;15.60;60.20;;;;;;766924;184;26430;-90
2023/11/06 12:06:32;;;;;;;2.77;1.60;;;15.90;61.90;;;;;;750447;190;27012;-91
2023/11/06 12:08:58;;;;;;;16.07;9.83;;;15.80;59.50;;;;;;750509;190;26608;-90
2023/11/06 12:11:24;;;;;;;47.50;27.50;;;15.90;58.40;;;;;;760456;188;26547;-90
2023/11/06 12:13:51;;;;;;;20.23;12.47;;;16.00;59.30;;;;;;760182;188;26558;-90
2023/11/06 12:16:19;;;;;;;5.87;2.83;;;16.20;59.10;;;;;;758989;188;26537;-91
2023/11/06 12:18:46;;;;;;;4.57;2.30;;;16.00;59.60;;;;;;758713;186;26525;-91
2023/11/06 12:21:11;;;;;;;10.57;6.93;;;16.30;60.70;;;;;;760859;187;26540;-91
2023/11/06 12:23:38;;;;;;;8.73;5.17;;;16.90;59.40;;;;;;759631;187;26561;-91
2023/11/06 12:26:10;;;;;;;10.27;5.80;;;17.50;57.20;;;;;;758371;188;26506;-90
2023/11/06 12:28:44;;;;;;;5.30;2.83;;;17.10;56.80;;;;;;757106;188;26507;-90
2023/11/06 12:31:13;;;;;;;6.03;2.87;;;16.10;58.70;;;;;;758816;188;26522;-90
2023/11/06 12:33:42;;;;;;;4.70;1.70;;;15.70;60.70;;;;;;760284;187;26523;-90
2023/11/06 12:36:28;;;;;;;4.67;2.80;;;15.40;60.30;;;;;;756829;186;27052;-90
2023/11/06 12:38:58;;;;;;;8.73;4.20;;;15.40;61.60;;;;;;757197;188;26518;-91
2023/11/06 12:41:27;;;;;;;4.07;1.80;;;15.80;60.90;;;;;;758288;188;26601;-91
2023/11/06 12:44:09;;;;;;;4.33;1.87;;;15.50;61.50;;;;;;759537;187;26515;-89
2023/11/06 12:46:42;;;;;;;2.20;1.33;;;15.30;62.60;;;;;;758807;188;26481;-91
2023/11/06 12:49:09;;;;;;;3.60;2.00;;;14.90;63.50;;;;;;758982;188;26498;-90
2023/11/06 12:51:36;;;;;;;3.37;1.50;;;14.70;64.40;;;;;;758504;188;26539;-90
2023/11/06 12:54:22;;;;;;;4.60;2.30;;;14.60;65.10;;;;;;763303;188;26500;-91
2023/11/06 12:56:49;;;;;;;5.73;4.23;;;14.50;64.70;;;;;;773893;184;26488;-90
2023/11/06 12:59:22;;;;;;;4.33;2.40;;;14.50;65.50;;;;;;751599;188;26537;-90
2023/11/06 13:01:54;;;;;;;5.27;1.87;;;14.50;65.50;;;;;;776229;184;26490;-90
2023/11/06 13:04:33;;;;;;;4.23;2.23;;;14.40;66.60;;;;;;763214;187;26439;-90
2023/11/06 13:07:04;;;;;;;7.20;3.37;;;14.40;67.10;;;;;;750289;190;26527;-89
2023/11/06 13:12:20;;;;;;;25.60;15.77;;;14.10;65.80;;;;;;764315;187;26509;-90
2023/11/06 13:14:57;;;;;;;25.73;15.07;;;14.20;67.10;;;;;;766951;188;26517;-90
2023/11/06 13:17:25;;;;;;;5.50;3.80;;;15.20;64.30;;;;;;765126;187;26544;-90
2023/11/06 13:19:58;;;;;;;3.83;2.80;;;16.10;61.10;;;;;;772155;184;27036;-90
2023/11/06 13:22:24;;;;;;;6.20;4.00;;;16.60;58.70;;;;;;749376;191;26549;-90
2023/11/06 13:24:50;;;;;;;7.47;4.93;;;18.00;56.40;;;;;;772841;181;26523;-90
2023/11/06 13:27:17;;;;;;;22.80;11.47;;;19.30;51.30;;;;;;772872;185;26476;-90
2023/11/06 13:29:43;;;;;;;20.30;11.37;;;19.30;51.00;;;;;;773073;185;26520;-91
2023/11/06 13:32:10;;;;;;;4.23;2.60;;;19.40;50.00;;;;;;773665;186;27118;-90
2023/11/06 13:34:36;;;;;;;12.10;7.20;;;17.80;51.40;;;;;;772578;183;26500;-90
2023/11/06 13:37:04;;;;;;;18.10;11.23;;;17.30;54.40;;;;;;763980;187;26429;-90
2023/11/06 13:39:43;;;;;;;45.10;27.07;;;17.90;53.40;;;;;;766137;188;27135;-89
2023/11/06 13:42:11;;;;;;;8.10;5.67;;;16.80;54.60;;;;;;761045;188;26586;-90
2023/11/06 13:44:45;;;;;;;6.73;4.37;;;16.10;57.60;;;;;;759505;188;26511;-90
2023/11/06 13:47:19;;;;;;;26.73;17.97;;;17.00;56.50;;;;;;758244;189;27088;-90
2023/11/06 13:49:50;;;;;;;2.73;1.60;;;17.30;54.40;;;;;;758438;189;26541;-90
2023/11/06 13:52:41;;;;;;;16.47;10.73;;;16.50;56.20;;;;;;747641;190;28110;-89
2023/11/06 13:55:06;;;;;;;33.57;21.47;;;15.80;57.10;;;;;;756767;188;26498;-90
2023/11/06 13:57:39;;;;;;;55.87;34.93;;;15.10;59.50;;;;;;762275;188;26629;-90
2023/11/06 14:00:23;;;;;;;26.40;15.53;;;14.80;62.30;;;;;;767048;187;26498;-90
2023/11/06 14:02:33;;;;;;;10.23;7.73;;;15.30;60.90;;;;;;756122;189;26529;-90
2023/11/06 14:04:59;;;;;;;4.07;2.30;;;15.60;60.80;;;;;;757663;189;26516;-89
2023/11/06 14:07:26;;;;;;;12.37;6.40;;;15.40;59.60;;;;;;757982;188;26500;-91
2023/11/06 14:10:06;;;;;;;4.83;2.60;;;15.00;60.40;;;;;;758126;188;26499;-90
2023/11/06 14:12:39;;;;;;;9.83;5.73;;;15.20;60.40;;;;;;759051;188;26519;-89
2023/11/06 14:15:09;;;;;;;9.03;5.20;;;15.20;59.70;;;;;;757565;189;26552;-89
2023/11/06 14:17:33;;;;;;;4.57;2.43;;;15.10;60.30;;;;;;757773;189;26525;-90
2023/11/06 14:20:00;;;;;;;2.17;1.60;;;15.70;59.40;;;;;;759537;188;26548;-89
2023/11/06 14:22:26;;;;;;;4.20;2.50;;;15.40;58.90;;;;;;761604;186;26518;-89
2023/11/06 14:24:54;;;;;;;3.70;1.50;;;14.90;60.70;;;;;;759797;188;26555;-90
2023/11/06 14:27:20;;;;;;;3.30;1.37;;;14.40;63.20;;;;;;759191;189;27054;-89
2023/11/06 14:29:46;;;;;;;11.97;7.37;;;14.10;64.20;;;;;;762578;187;26504;-88
2023/11/06 14:32:22;;;;;;;43.63;27.93;;;14.10;64.40;;;;;;762774;188;27100;-88
2023/11/06 14:34:49;;;;;;;38.53;21.13;;;14.20;65.10;;;;;;765265;188;26564;-90
2023/11/06 14:37:15;;;;;;;17.80;11.50;;;14.20;64.10;;;;;;761031;188;26523;-90
2023/11/06 14:39:42;;;;;;;14.87;8.63;;;14.60;64.20;;;;;;762188;188;26519;-89
2023/11/06 14:42:10;;;;;;;12.40;7.70;;;15.60;61.40;;;;;;764866;188;27043;-88
2023/11/06 14:44:39;;;;;;;25.10;14.90;;;16.50;56.90;;;;;;762539;188;26537;-90
2023/11/06 14:47:07;;;;;;;15.33;8.63;;;16.70;54.30;;;;;;777441;184;26489;-89
2023/11/06 14:49:45;;;;;;;19.60;11.73;;;15.50;56.30;;;;;;773892;186;26479;-89
2023/11/06 14:52:12;;;;;;;9.47;5.03;;;14.50;58.80;;;;;;773957;186;26535;-90
2023/11/06 14:54:39;;;;;;;4.20;2.23;;;14.10;59.40;;;;;;773807;185;26521;-89
2023/11/06 14:57:05;;;;;;;11.67;6.63;;;13.90;60.30;;;;;;763681;185;26510;-90
2023/11/06 14:59:32;;;;;;;7.33;4.53;;;14.00;61.50;;;;;;763722;185;27844;-90
2023/11/06 15:01:59;;;;;;;28.17;17.07;;;14.40;60.60;;;;;;763060;188;26537;-91
2023/11/06 15:04:39;;;;;;;17.43;11.77;;;14.20;60.30;;;;;;764346;187;26461;-90
2023/11/06 15:07:06;;;;;;;9.37;5.57;;;13.90;60.00;;;;;;758120;188;27059;-89
2023/11/06 15:09:52;;;;;;;13.50;6.90;;;13.80;61.60;;;;;;751325;191;26540;-89
2023/11/06 15:12:19;;;;;;;33.83;19.87;;;13.70;62.40;;;;;;751213;191;26565;-89
2023/11/06 15:14:47;;;;;;;31.03;17.00;;;13.60;63.30;;;;;;751611;190;26573;-89
2023/11/06 15:17:12;;;;;;;10.63;5.17;;;13.50;63.60;;;;;;751129;191;26524;-89
2023/11/06 15:19:40;;;;;;;12.77;7.03;;;13.50;63.30;;;;;;751741;190;26523;-89
2023/11/06 15:22:07;;;;;;;21.10;13.37;;;13.50;63.30;;;;;;751038;191;27103;-89
2023/11/06 15:24:32;;;;;;;7.53;5.57;;;13.50;64.50;;;;;;751141;191;26536;-88
2023/11/06 15:26:59;;;;;;;12.13;7.37;;;13.40;64.10;;;;;;751000;191;27099;-89
2023/11/06 15:29:27;;;;;;;7.87;4.03;;;13.40;63.90;;;;;;751193;191;26639;-89
2023/11/06 15:31:52;;;;;;;22.00;12.80;;;13.30;64.00;;;;;;751379;188;26576;-89
2023/11/06 15:34:19;;;;;;;4.53;2.50;;;13.30;63.70;;;;;;753463;188;26586;-89
2023/11/06 15:36:51;;;;;;;8.13;3.07;;;13.30;64.50;;;;;;753930;190;26584;-89
2023/11/06 15:39:21;;;;;;;23.90;11.67;;;13.30;63.90;;;;;;752463;188;27103;-89
2023/11/06 15:41:46;;;;;;;22.53;11.13;;;13.30;64.80;;;;;;752570;190;27108;-89
2023/11/06 15:44:12;;;;;;;7.03;3.93;;;13.20;64.60;;;;;;762982;187;26501;-89
2023/11/06 15:46:39;;;;;;;6.40;3.10;;;13.20;64.30;;;;;;760888;188;26499;-89
2023/11/06 15:49:05;;;;;;;23.03;12.50;;;13.20;64.70;;;;;;761528;186;26505;-89